Time;durP1;ratioP1;P1;durP2;ratioP2;P2;SDS_P1;SDS_P2;PMS_P1;PMS_P2;Temp;Humidity;BMP_temperature;BMP_pressure;BME280_temperature;BME280_humidity;BME280_pressure;Samples;Min_cycle;Max_cycle;Signal;HPM_P1;HPM_P2
2023/08/10 00:00:15;;;;;;;8.93;3.00;;;16.80;71.40;;;;;;9177451;19;20006;-71
2023/08/10 00:03:24;;;;;;;5.18;2.30;;;16.90;71.60;;;;;;9177266;19;20022;-70
2023/08/10 00:06:30;;;;;;;9.25;2.42;;;16.80;71.50;;;;;;9178191;19;20007;-70
2023/08/10 00:09:39;;;;;;;10.05;3.05;;;16.80;71.50;;;;;;9178948;19;20019;-70
2023/08/10 00:12:45;;;;;;;9.70;2.28;;;16.80;71.50;;;;;;9178822;19;20034;-70
2023/08/10 00:15:53;;;;;;;6.97;2.40;;;16.80;71.50;;;;;;9177547;19;20380;-70
2023/08/10 00:18:59;;;;;;;5.22;2.05;;;16.80;71.60;;;;;;9178123;19;20026;-71
2023/08/10 00:22:06;;;;;;;10.35;2.78;;;16.70;71.60;;;;;;9178422;19;20019;-70
2023/08/10 00:25:14;;;;;;;8.68;2.58;;;16.70;77.00;;;;;;9178298;19;20010;-71
2023/08/10 00:28:22;;;;;;;12.02;2.67;;;18.30;76.40;;;;;;9176529;19;20021;-72
2023/08/10 00:31:27;;;;;;;9.88;2.50;;;17.30;76.50;;;;;;9178358;19;20015;-70
2023/08/10 00:34:35;;;;;;;7.68;2.50;;;17.70;74.80;;;;;;9177854;19;20032;-70
2023/08/10 00:37:40;;;;;;;9.23;3.28;;;16.50;71.80;;;;;;9174574;19;20010;-71
2023/08/10 00:40:50;;;;;;;7.55;2.75;;;16.70;72.00;;;;;;9177375;19;20073;-70
2023/08/10 00:43:56;;;;;;;7.47;2.40;;;16.70;72.00;;;;;;9177893;19;20052;-70
2023/08/10 00:47:03;;;;;;;12.48;2.38;;;16.70;72.10;;;;;;9175151;19;20022;-70
2023/08/10 00:50:10;;;;;;;6.55;2.30;;;16.70;72.10;;;;;;9177214;19;20018;-70
2023/08/10 00:53:19;;;;;;;13.30;2.55;;;16.70;72.20;;;;;;9177572;19;20018;-70
2023/08/10 00:56:27;;;;;;;6.80;2.05;;;16.70;72.30;;;;;;9171353;19;20017;-70
2023/08/10 00:59:37;;;;;;;10.27;2.33;;;16.70;72.30;;;;;;9176843;19;20006;-70
2023/08/10 01:02:43;;;;;;;10.02;2.30;;;16.70;72.30;;;;;;9176736;19;20015;-70
2023/08/10 01:06:11;;;;;;;4.50;2.50;;;16.70;72.30;;;;;;9176208;19;20020;-71
2023/08/10 01:09:24;;;;;;;8.43;2.30;;;16.80;72.50;;;;;;9177080;19;20044;-71
2023/08/10 01:12:41;;;;;;;9.07;2.15;;;16.70;72.40;;;;;;9176638;19;20023;-71
2023/08/10 01:15:52;;;;;;;8.33;2.20;;;16.80;72.50;;;;;;9175820;19;20017;-70
2023/08/10 01:19:01;;;;;;;9.10;2.28;;;16.70;72.40;;;;;;9174514;19;20021;-71
2023/08/10 01:22:16;;;;;;;7.35;2.28;;;16.70;72.50;;;;;;9175527;19;20018;-71
2023/08/10 01:25:27;;;;;;;11.23;2.38;;;16.70;72.60;;;;;;9173762;19;20015;-70
2023/08/10 01:28:44;;;;;;;6.15;2.22;;;16.70;72.70;;;;;;9175653;19;20015;-71
2023/08/10 01:31:52;;;;;;;8.05;2.25;;;16.70;72.70;;;;;;9175455;19;20025;-71
2023/08/10 01:34:57;;;;;;;8.18;2.17;;;16.70;72.70;;;;;;9175375;19;20018;-71
2023/08/10 01:38:05;;;;;;;8.15;2.47;;;16.70;72.70;;;;;;9173028;19;20025;-70
2023/08/10 01:41:13;;;;;;;7.28;2.25;;;16.70;72.80;;;;;;9175420;19;20030;-70
2023/08/10 01:44:20;;;;;;;9.52;2.45;;;16.70;72.90;;;;;;9175464;19;20019;-71
2023/08/10 01:47:39;;;;;;;3.17;2.10;;;16.70;72.90;;;;;;9175029;19;20016;-71
2023/08/10 01:50:51;;;;;;;4.18;1.88;;;16.70;73.10;;;;;;9175232;19;20017;-71
2023/08/10 01:53:58;;;;;;;9.52;4.05;;;16.70;73.00;;;;;;9174373;19;20975;-70
2023/08/10 01:57:08;;;;;;;7.88;2.95;;;16.70;73.00;;;;;;9166242;19;20494;-70
2023/08/10 02:00:14;;;;;;;6.00;2.60;;;16.70;73.20;;;;;;9172913;19;20046;-70
2023/08/10 02:03:22;;;;;;;12.10;4.57;;;16.70;73.10;;;;;;9174928;19;20021;-70
2023/08/10 02:06:37;;;;;;;6.30;2.10;;;16.70;73.30;;;;;;9174427;19;20025;-70
2023/08/10 02:09:44;;;;;;;13.15;3.03;;;16.60;73.30;;;;;;9183737;19;20376;-70
2023/08/10 02:12:52;;;;;;;6.68;2.83;;;16.70;73.40;;;;;;9180464;19;20014;-70
2023/08/10 02:15:59;;;;;;;12.93;2.80;;;16.60;73.40;;;;;;9181202;19;20026;-70
2023/08/10 02:19:05;;;;;;;6.97;2.53;;;16.60;73.40;;;;;;9182373;19;20030;-70
2023/08/10 02:22:12;;;;;;;7.13;3.20;;;16.60;73.40;;;;;;9180103;19;20029;-70
2023/08/10 02:25:18;;;;;;;8.07;2.60;;;16.60;73.50;;;;;;9183208;19;20369;-70
2023/08/10 02:28:28;;;;;;;8.23;2.60;;;16.60;73.50;;;;;;9181298;19;20022;-70
2023/08/10 02:31:34;;;;;;;8.50;2.80;;;16.60;73.60;;;;;;9181359;19;20010;-70
2023/08/10 02:34:42;;;;;;;5.85;2.00;;;16.50;73.60;;;;;;9182998;19;20018;-71
2023/08/10 02:37:47;;;;;;;9.32;2.60;;;16.50;73.60;;;;;;9180632;19;20030;-71
2023/08/10 02:40:54;;;;;;;9.52;2.42;;;16.60;73.80;;;;;;9182691;19;20026;-71
2023/08/10 02:44:02;;;;;;;7.18;2.60;;;16.50;73.80;;;;;;9182376;19;20018;-71
2023/08/10 02:47:10;;;;;;;7.97;2.30;;;16.50;73.80;;;;;;9179884;19;20082;-71
2023/08/10 02:50:15;;;;;;;7.57;2.67;;;16.50;73.80;;;;;;9181539;19;20029;-71
2023/08/10 02:53:23;;;;;;;6.38;2.22;;;16.50;73.80;;;;;;9180637;19;20787;-71
2023/08/10 02:56:28;;;;;;;6.07;2.70;;;16.60;90.40;;;;;;9177295;19;20014;-71
2023/08/10 02:59:38;;;;;;;5.22;2.50;;;16.50;73.90;;;;;;9182175;19;20018;-71
2023/08/10 03:02:43;;;;;;;8.30;2.88;;;16.50;74.60;;;;;;9181014;19;20028;-71
2023/08/10 03:05:53;;;;;;;6.50;2.50;;;16.50;74.70;;;;;;9179906;19;20597;-71
2023/08/10 03:08:58;;;;;;;4.18;2.58;;;16.50;74.80;;;;;;9179552;19;20051;-71
2023/08/10 03:12:07;;;;;;;7.10;2.70;;;16.50;75.40;;;;;;9179461;19;20014;-71
2023/08/10 03:15:14;;;;;;;13.73;3.38;;;16.30;80.00;;;;;;9181313;19;20010;-71
2023/08/10 03:18:22;;;;;;;5.95;2.90;;;16.50;83.20;;;;;;9175131;19;20011;-71
2023/08/10 03:21:27;;;;;;;6.32;2.65;;;16.50;81.10;;;;;;9179008;19;20022;-71
2023/08/10 03:24:36;;;;;;;7.72;3.08;;;17.40;74.90;;;;;;9180747;19;20018;-71
2023/08/10 03:27:42;;;;;;;10.07;2.85;;;16.40;91.10;;;;;;9178468;19;20022;-71
2023/08/10 03:30:55;;;;;;;5.03;2.50;;;16.40;82.30;;;;;;9178248;19;20014;-71
2023/08/10 03:34:00;;;;;;;7.07;3.10;;;16.40;74.40;;;;;;9180242;19;20420;-71
2023/08/10 03:37:08;;;;;;;8.00;3.00;;;16.40;74.40;;;;;;9178140;19;20027;-70
2023/08/10 03:40:14;;;;;;;10.45;3.25;;;16.40;74.50;;;;;;9178516;19;20018;-71
2023/08/10 03:43:22;;;;;;;10.20;2.63;;;16.40;74.60;;;;;;9178220;19;20371;-70
2023/08/10 03:46:30;;;;;;;8.50;2.95;;;17.10;76.00;;;;;;9179988;19;20093;-71
2023/08/10 03:49:37;;;;;;;8.55;3.17;;;16.40;74.60;;;;;;9177204;19;20014;-71
2023/08/10 03:52:43;;;;;;;9.45;3.00;;;16.40;86.20;;;;;;9177637;19;20031;-70
2023/08/10 03:55:50;;;;;;;9.05;3.00;;;16.40;74.70;;;;;;9179355;19;20021;-69
2023/08/10 03:58:55;;;;;;;8.27;3.53;;;16.30;74.70;;;;;;9171831;19;20014;-71
2023/08/10 04:02:05;;;;;;;14.38;3.30;;;16.40;74.70;;;;;;9178744;19;20082;-70
2023/08/10 04:05:13;;;;;;;7.30;3.20;;;16.30;74.80;;;;;;9179331;19;20029;-70
2023/08/10 04:08:20;;;;;;;9.10;3.10;;;16.30;74.80;;;;;;9177104;19;20015;-71
2023/08/10 04:11:25;;;;;;;9.48;3.47;;;16.30;74.80;;;;;;9179223;19;20014;-70
2023/08/10 04:14:33;;;;;;;9.82;3.33;;;16.30;74.90;;;;;;9176807;19;20015;-70
2023/08/10 04:17:41;;;;;;;11.57;3.15;;;16.30;74.90;;;;;;9178263;19;20006;-70
2023/08/10 04:20:49;;;;;;;6.45;3.20;;;16.30;75.00;;;;;;9176437;19;20013;-70
2023/08/10 04:23:54;;;;;;;7.90;3.20;;;16.30;75.00;;;;;;9178436;19;20010;-70
2023/08/10 04:27:02;;;;;;;11.48;3.15;;;16.30;75.10;;;;;;9178310;19;20018;-70
2023/08/10 04:30:09;;;;;;;8.40;3.35;;;16.30;75.70;;;;;;9175272;19;20380;-71
2023/08/10 04:33:19;;;;;;;8.50;3.28;;;16.30;75.20;;;;;;9178095;19;20018;-72
2023/08/10 04:36:24;;;;;;;7.43;2.90;;;17.50;76.30;;;;;;9178344;19;20044;-71
2023/08/10 04:39:32;;;;;;;9.35;3.45;;;16.30;75.20;;;;;;9176062;19;20025;-71
2023/08/10 04:42:40;;;;;;;7.85;3.05;;;16.30;75.30;;;;;;9177624;19;20395;-71
2023/08/10 04:45:48;;;;;;;4.18;2.80;;;16.30;75.90;;;;;;9177211;19;20487;-71
2023/08/10 04:48:56;;;;;;;10.93;3.08;;;16.30;75.30;;;;;;9176799;19;20015;-71
2023/08/10 04:52:03;;;;;;;6.65;3.13;;;16.30;75.40;;;;;;9177217;19;20033;-71
2023/08/10 04:55:10;;;;;;;7.63;3.45;;;16.60;92.60;;;;;;9176677;19;20016;-70
2023/08/10 04:58:18;;;;;;;10.30;3.20;;;16.30;75.40;;;;;;9171565;19;20010;-71
2023/08/10 05:01:23;;;;;;;8.68;3.05;;;16.70;78.30;;;;;;9176773;19;20006;-72
2023/08/10 05:04:33;;;;;;;6.72;4.18;;;16.60;83.60;;;;;;9172308;19;20652;-70
2023/08/10 05:07:39;;;;;;;11.63;3.25;;;16.30;75.50;;;;;;9171583;19;20025;-71
2023/08/10 05:10:47;;;;;;;6.35;2.95;;;16.30;75.50;;;;;;9167326;19;20010;-69
2023/08/10 05:13:53;;;;;;;8.02;2.78;;;16.30;75.60;;;;;;9168986;19;20030;-70
2023/08/10 05:17:00;;;;;;;9.20;3.40;;;16.40;75.60;;;;;;9168133;19;20022;-71
2023/08/10 05:20:10;;;;;;;11.13;3.72;;;16.40;75.60;;;;;;9168502;19;20028;-70
2023/08/10 05:23:18;;;;;;;14.85;3.63;;;16.40;75.70;;;;;;9170546;19;20015;-71
2023/08/10 05:26:23;;;;;;;8.32;3.25;;;16.40;75.70;;;;;;9177201;19;20021;-70
2023/08/10 05:29:31;;;;;;;10.48;3.30;;;16.40;75.80;;;;;;9176583;19;20015;-69
2023/08/10 05:32:39;;;;;;;9.98;3.28;;;15.90;82.30;;;;;;9175345;19;20041;-70
2023/08/10 05:35:49;;;;;;;13.77;3.72;;;17.20;90.00;;;;;;9176897;19;20017;-70
2023/08/10 05:38:54;;;;;;;8.57;3.22;;;16.60;76.00;;;;;;9175936;19;20018;-71
2023/08/10 05:42:01;;;;;;;9.77;3.25;;;16.50;76.40;;;;;;9181575;19;20023;-70
2023/08/10 05:45:09;;;;;;;6.90;3.15;;;16.50;76.00;;;;;;9185832;19;20015;-70
2023/08/10 05:48:16;;;;;;;7.50;3.72;;;16.80;80.90;;;;;;9184143;19;20022;-69
2023/08/10 05:51:24;;;;;;;17.25;5.28;;;16.50;76.00;;;;;;9185950;19;20753;-72
2023/08/10 05:54:32;;;;;;;8.52;3.38;;;16.80;78.80;;;;;;9185294;19;20476;-70
2023/08/10 05:57:38;;;;;;;9.23;2.97;;;16.70;76.40;;;;;;9182243;19;20349;-70
2023/08/10 06:00:45;;;;;;;9.40;3.30;;;16.60;76.10;;;;;;9182681;19;20015;-71
2023/08/10 06:03:51;;;;;;;8.18;3.80;;;16.60;76.20;;;;;;9183026;19;20010;-69
2023/08/10 06:07:01;;;;;;;13.45;3.30;;;16.70;76.20;;;;;;9181023;19;20021;-70
2023/08/10 06:10:07;;;;;;;11.10;3.92;;;16.70;76.30;;;;;;9182622;19;20014;-71
2023/08/10 06:13:14;;;;;;;13.15;3.45;;;16.70;76.30;;;;;;9182474;19;20019;-71
2023/08/10 06:16:19;;;;;;;13.55;3.35;;;16.70;76.30;;;;;;9184148;19;20044;-71
2023/08/10 06:19:27;;;;;;;9.48;3.33;;;16.70;76.30;;;;;;9182905;19;20019;-71
2023/08/10 06:22:35;;;;;;;10.40;3.60;;;16.80;76.40;;;;;;9183816;19;20018;-71
2023/08/10 06:25:42;;;;;;;9.18;3.20;;;16.80;76.40;;;;;;9184058;19;20046;-71
2023/08/10 06:28:48;;;;;;;13.20;3.88;;;16.80;76.40;;;;;;9184179;19;20789;-71
2023/08/10 06:31:56;;;;;;;4.53;3.38;;;16.90;76.40;;;;;;9183911;19;20018;-71
2023/08/10 06:35:02;;;;;;;6.43;3.63;;;16.90;76.50;;;;;;9181978;19;20010;-71
2023/08/10 06:38:12;;;;;;;8.75;3.75;;;16.90;76.60;;;;;;9183977;19;20470;-71
2023/08/10 06:41:17;;;;;;;18.42;4.25;;;16.60;77.80;;;;;;9180771;19;20408;-71
2023/08/10 06:44:24;;;;;;;12.93;3.30;;;17.10;76.80;;;;;;9181543;19;20480;-71
2023/08/10 06:47:29;;;;;;;11.80;3.83;;;17.10;76.80;;;;;;9182468;19;20021;-71
2023/08/10 06:50:37;;;;;;;8.75;3.55;;;17.20;76.90;;;;;;9182780;19;20023;-72
2023/08/10 06:53:45;;;;;;;13.32;2.97;;;17.30;77.60;;;;;;9181413;19;20010;-71
2023/08/10 06:56:53;;;;;;;9.35;3.38;;;17.50;77.00;;;;;;9178092;19;20058;-71
2023/08/10 06:59:58;;;;;;;6.47;3.40;;;17.60;77.00;;;;;;9180862;19;20063;-71
2023/08/10 07:03:25;;;;;;;12.80;3.42;;;19.30;81.20;;;;;;9179667;19;20017;-71
2023/08/10 07:06:31;;;;;;;4.25;2.63;;;17.90;86.10;;;;;;9179837;19;20115;-71
2023/08/10 07:09:41;;;;;;;5.72;2.92;;;17.80;79.70;;;;;;9182519;19;20033;-72
2023/08/10 07:12:47;;;;;;;9.07;2.60;;;18.20;76.40;;;;;;9182395;19;20472;-71
2023/08/10 07:15:54;;;;;;;5.55;2.40;;;18.30;76.30;;;;;;9181878;19;20029;-71
2023/08/10 07:18:59;;;;;;;9.90;2.53;;;18.40;76.10;;;;;;9181626;19;20022;-70
2023/08/10 07:22:07;;;;;;;8.45;2.17;;;18.50;76.00;;;;;;9182015;19;20029;-71
2023/08/10 07:25:16;;;;;;;5.30;2.08;;;18.60;75.80;;;;;;9179977;19;20021;-71
2023/08/10 07:28:26;;;;;;;3.55;2.10;;;18.70;75.80;;;;;;9181553;19;20026;-71
2023/08/10 07:31:34;;;;;;;11.45;2.10;;;18.80;75.60;;;;;;9179600;19;20100;-72
2023/08/10 07:34:41;;;;;;;5.07;2.05;;;18.90;75.50;;;;;;9180840;19;20011;-72
2023/08/10 07:37:49;;;;;;;11.68;2.60;;;19.00;86.50;;;;;;9180784;19;20007;-72
2023/08/10 07:40:59;;;;;;;8.82;1.92;;;19.00;75.50;;;;;;9177497;19;20010;-72
2023/08/10 07:44:04;;;;;;;5.57;1.90;;;19.10;75.50;;;;;;9180974;19;20060;-71
2023/08/10 07:47:12;;;;;;;8.50;2.38;;;19.20;75.30;;;;;;9179794;19;20031;-71
2023/08/10 07:50:17;;;;;;;9.52;2.70;;;19.30;75.30;;;;;;9179921;19;20014;-71
2023/08/10 07:53:28;;;;;;;10.05;1.92;;;19.40;75.20;;;;;;9180441;19;20019;-72
2023/08/10 07:56:36;;;;;;;3.63;1.15;;;19.60;75.00;;;;;;9175672;19;20061;-71
2023/08/10 07:59:43;;;;;;;4.63;1.73;;;19.60;74.60;;;;;;9177851;19;20014;-72
2023/08/10 08:02:50;;;;;;;5.72;1.65;;;19.70;74.50;;;;;;9179432;19;20587;-71
2023/08/10 08:05:57;;;;;;;10.13;2.00;;;19.80;74.30;;;;;;9179489;19;20842;-71
2023/08/10 08:09:04;;;;;;;5.82;1.30;;;19.90;74.20;;;;;;9180085;19;20014;-70
2023/08/10 08:12:14;;;;;;;15.02;2.13;;;20.00;74.00;;;;;;9177740;19;20014;-71
2023/08/10 08:15:21;;;;;;;9.18;1.83;;;20.30;90.70;;;;;;9179359;19;20658;-71
2023/08/10 08:18:48;;;;;;;10.50;1.83;;;20.10;78.80;;;;;;9179246;19;20018;-71
2023/08/10 08:21:54;;;;;;;7.80;1.38;;;20.10;73.60;;;;;;9177300;19;20349;-72
2023/08/10 08:25:01;;;;;;;6.07;2.33;;;20.20;73.60;;;;;;9179369;19;20018;-73
2023/08/10 08:28:09;;;;;;;8.52;1.92;;;20.30;74.10;;;;;;9179023;19;20014;-71
2023/08/10 08:31:16;;;;;;;5.72;1.33;;;20.30;73.50;;;;;;9178667;19;20380;-71
2023/08/10 08:34:24;;;;;;;7.65;2.30;;;20.30;73.40;;;;;;9175181;19;20048;-71
2023/08/10 08:37:33;;;;;;;4.05;1.15;;;20.40;73.40;;;;;;9178544;19;20025;-71
2023/08/10 08:40:38;;;;;;;6.15;1.40;;;20.40;73.10;;;;;;9176448;19;20523;-71
2023/08/10 08:43:49;;;;;;;4.55;1.40;;;20.40;72.90;;;;;;9178496;19;20384;-72
2023/08/10 08:46:55;;;;;;;5.13;1.70;;;20.50;72.80;;;;;;9178195;19;20014;-72
2023/08/10 08:50:02;;;;;;;8.45;1.50;;;20.60;72.70;;;;;;9177494;19;20014;-72
2023/08/10 08:53:10;;;;;;;6.65;1.70;;;20.60;72.60;;;;;;9175734;19;20039;-72
2023/08/10 08:56:18;;;;;;;8.48;1.58;;;20.70;72.40;;;;;;9173496;19;20019;-71
2023/08/10 08:59:26;;;;;;;7.88;1.60;;;20.70;72.30;;;;;;9178482;19;20022;-73
2023/08/10 09:02:34;;;;;;;7.38;1.40;;;20.80;72.20;;;;;;9176155;19;20014;-71
2023/08/10 09:05:40;;;;;;;6.32;1.67;;;20.80;72.20;;;;;;9178020;19;20405;-72
2023/08/10 09:08:47;;;;;;;10.15;1.63;;;20.90;72.10;;;;;;9177758;19;20029;-71
2023/08/10 09:11:53;;;;;;;5.63;1.30;;;20.90;72.00;;;;;;9178748;19;20025;-73
2023/08/10 09:15:08;;;;;;;8.48;1.35;;;20.90;71.80;;;;;;9178017;19;20022;-72
2023/08/10 09:18:14;;;;;;;6.85;1.35;;;20.90;71.60;;;;;;9186472;19;20022;-72
2023/08/10 09:21:23;;;;;;;5.00;1.48;;;20.90;71.60;;;;;;9182447;19;20478;-71
2023/08/10 09:24:31;;;;;;;5.53;1.33;;;20.90;71.50;;;;;;9185572;19;20014;-72
2023/08/10 09:27:39;;;;;;;6.28;1.60;;;20.90;72.10;;;;;;9184518;19;20475;-71
2023/08/10 09:30:51;;;;;;;6.93;2.20;;;20.90;71.50;;;;;;9186414;19;20015;-72
2023/08/10 09:33:59;;;;;;;4.28;1.33;;;20.90;71.40;;;;;;9186391;19;20472;-71
2023/08/10 09:37:05;;;;;;;4.75;1.40;;;20.90;71.40;;;;;;9185893;19;20021;-71
2023/08/10 09:40:16;;;;;;;8.93;1.50;;;20.90;71.30;;;;;;9185761;19;20015;-72
2023/08/10 09:43:21;;;;;;;4.15;1.23;;;21.00;71.30;;;;;;9185199;19;20018;-71
2023/08/10 09:46:32;;;;;;;9.43;1.95;;;20.90;71.20;;;;;;9183709;19;20027;-71
2023/08/10 09:49:37;;;;;;;6.53;1.58;;;20.90;71.00;;;;;;9181431;19;20183;-71
2023/08/10 09:52:45;;;;;;;4.47;1.40;;;20.90;71.10;;;;;;9184994;19;20019;-72
2023/08/10 09:55:51;;;;;;;5.03;1.65;;;21.00;71.70;;;;;;9184115;19;20019;-72
2023/08/10 09:58:58;;;;;;;5.22;1.42;;;21.00;71.00;;;;;;9180857;19;20025;-72
2023/08/10 10:02:12;;;;;;;5.97;1.48;;;21.00;70.90;;;;;;9182507;19;20033;-72
2023/08/10 10:05:21;;;;;;;13.00;1.83;;;21.10;70.70;;;;;;9184409;19;20013;-71
2023/08/10 10:08:45;;;;;;;3.13;1.25;;;21.10;70.70;;;;;;9184545;19;20090;-71
2023/08/10 10:11:53;;;;;;;4.15;1.40;;;21.10;70.70;;;;;;9184842;19;20019;-71
2023/08/10 10:14:59;;;;;;;8.00;1.35;;;21.20;70.50;;;;;;9185428;19;20103;-72
2023/08/10 10:18:09;;;;;;;2.83;1.20;;;21.20;70.40;;;;;;9184316;19;20631;-71
2023/08/10 10:21:15;;;;;;;8.15;1.50;;;21.20;70.30;;;;;;9181820;19;20360;-71
2023/08/10 10:24:22;;;;;;;3.47;1.40;;;21.30;70.30;;;;;;9182166;19;20010;-71
2023/08/10 10:27:40;;;;;;;5.82;1.40;;;21.30;70.10;;;;;;9180747;19;20014;-71
2023/08/10 10:30:56;;;;;;;4.50;1.17;;;21.30;69.80;;;;;;9183724;19;20018;-70
2023/08/10 10:34:04;;;;;;;5.03;1.40;;;21.40;69.80;;;;;;9183133;19;20025;-71
2023/08/10 10:37:15;;;;;;;4.13;1.30;;;21.40;69.80;;;;;;9183215;19;20014;-71
2023/08/10 10:40:23;;;;;;;3.65;1.10;;;21.40;69.80;;;;;;9183258;19;20301;-71
2023/08/10 10:43:30;;;;;;;7.65;1.52;;;21.50;69.80;;;;;;9180455;19;20014;-72
2023/08/10 10:46:43;;;;;;;4.45;1.50;;;21.50;69.80;;;;;;9181425;19;20637;-71
2023/08/10 10:49:59;;;;;;;7.65;1.20;;;21.60;69.60;;;;;;9179979;19;20648;-71
2023/08/10 10:53:09;;;;;;;3.55;1.20;;;21.60;69.50;;;;;;9180661;19;20010;-72
2023/08/10 10:56:16;;;;;;;4.68;1.27;;;21.70;69.60;;;;;;9178304;19;20014;-72
2023/08/10 10:59:22;;;;;;;8.05;1.83;;;21.80;69.60;;;;;;9182874;19;20030;-72
2023/08/10 11:02:30;;;;;;;4.40;1.55;;;21.90;69.50;;;;;;9180999;19;20018;-72
2023/08/10 11:05:39;;;;;;;8.20;1.77;;;22.00;69.30;;;;;;9182022;19;20014;-71
2023/08/10 11:08:51;;;;;;;4.25;1.50;;;22.10;69.00;;;;;;9182065;19;20023;-72
2023/08/10 11:11:56;;;;;;;4.65;1.38;;;22.20;68.80;;;;;;9182405;19;20011;-72
2023/08/10 11:15:04;;;;;;;5.25;1.38;;;22.30;68.90;;;;;;9180725;19;20019;-72
2023/08/10 11:18:14;;;;;;;5.03;1.30;;;22.40;68.70;;;;;;9182349;19;20015;-72
2023/08/10 11:21:25;;;;;;;5.13;1.75;;;22.40;68.40;;;;;;9181728;19;20483;-72
2023/08/10 11:24:32;;;;;;;2.50;1.17;;;22.50;68.30;;;;;;9181501;19;20010;-72
2023/08/10 11:27:39;;;;;;;4.72;1.40;;;22.60;68.40;;;;;;9181723;19;20489;-72
2023/08/10 11:30:45;;;;;;;5.45;2.05;;;22.60;68.40;;;;;;9181316;19;20126;-72
2023/08/10 11:33:52;;;;;;;3.90;1.65;;;22.70;68.20;;;;;;9181311;19;20030;-72
2023/08/10 11:37:00;;;;;;;9.50;1.80;;;22.80;68.20;;;;;;9180856;19;20047;-72
2023/08/10 11:40:11;;;;;;;5.65;1.75;;;22.90;67.90;;;;;;9180038;19;20022;-72
2023/08/10 11:43:20;;;;;;;6.75;2.13;;;22.90;67.80;;;;;;9178771;19;20029;-72
2023/08/10 11:46:29;;;;;;;5.50;1.60;;;23.10;68.50;;;;;;9180470;19;20119;-72
2023/08/10 11:49:35;;;;;;;4.22;1.60;;;23.20;67.80;;;;;;9177934;19;20617;-73
2023/08/10 11:52:45;;;;;;;3.88;1.35;;;23.20;67.60;;;;;;9178200;19;20022;-72
2023/08/10 11:55:54;;;;;;;7.70;1.83;;;23.40;67.50;;;;;;9180801;19;20020;-72
2023/08/10 11:59:14;;;;;;;5.65;1.75;;;23.60;67.30;;;;;;9175556;19;20354;-72
2023/08/10 12:02:20;;;;;;;5.55;1.73;;;23.70;66.90;;;;;;9179423;19;20052;-72
2023/08/10 12:05:41;;;;;;;7.97;2.30;;;23.80;67.00;;;;;;9179675;19;20014;-73
2023/08/10 12:08:51;;;;;;;6.85;1.63;;;23.90;66.70;;;;;;9179950;19;20014;-73
2023/08/10 12:11:58;;;;;;;3.35;1.52;;;24.00;66.70;;;;;;9179607;19;20014;-72
2023/08/10 12:15:15;;;;;;;4.57;1.95;;;24.20;66.70;;;;;;9179974;19;20014;-73
2023/08/10 12:18:24;;;;;;;7.05;1.90;;;24.30;66.70;;;;;;9179535;19;20333;-72
2023/08/10 12:21:30;;;;;;;8.15;2.58;;;24.40;66.20;;;;;;9179780;19;20014;-72
2023/08/10 12:24:40;;;;;;;10.50;2.03;;;24.50;66.00;;;;;;9175968;19;20014;-72
2023/08/10 12:27:45;;;;;;;5.47;1.52;;;24.60;66.00;;;;;;9180396;19;20014;-72
2023/08/10 12:30:52;;;;;;;3.55;1.30;;;24.70;65.90;;;;;;9176336;19;20017;-71
2023/08/10 12:33:58;;;;;;;7.45;1.85;;;24.80;65.80;;;;;;9178559;19;20435;-71
2023/08/10 12:37:05;;;;;;;4.15;1.95;;;24.90;65.60;;;;;;9179041;19;20014;-72
2023/08/10 12:40:14;;;;;;;7.10;1.50;;;25.00;65.40;;;;;;9176558;19;20019;-72
2023/08/10 12:43:22;;;;;;;6.30;2.03;;;25.00;65.10;;;;;;9175963;19;20726;-71
2023/08/10 12:46:27;;;;;;;6.53;2.08;;;25.10;65.10;;;;;;9178828;19;20670;-72
2023/08/10 12:49:35;;;;;;;6.63;2.03;;;25.20;68.70;;;;;;9176140;19;20488;-71
2023/08/10 12:52:41;;;;;;;6.35;1.88;;;25.50;72.30;;;;;;9176344;19;20436;-71
2023/08/10 12:55:51;;;;;;;7.30;2.22;;;25.20;65.00;;;;;;9177919;19;20034;-72
2023/08/10 12:58:57;;;;;;;6.47;1.63;;;25.30;64.60;;;;;;9173710;19;20023;-72
2023/08/10 13:02:05;;;;;;;10.98;2.25;;;25.30;64.70;;;;;;9178136;19;20026;-71
2023/08/10 13:05:12;;;;;;;7.97;2.65;;;25.40;64.80;;;;;;9177125;19;20101;-72
2023/08/10 13:08:20;;;;;;;4.75;1.92;;;25.50;64.70;;;;;;9177988;19;20026;-71
2023/08/10 13:11:28;;;;;;;5.85;1.88;;;25.50;64.30;;;;;;9177687;19;20489;-71
2023/08/10 13:14:35;;;;;;;5.43;2.38;;;25.60;64.10;;;;;;9177391;19;20550;-71
2023/08/10 13:17:41;;;;;;;5.05;1.98;;;25.60;64.20;;;;;;9177443;19;20013;-71
2023/08/10 13:20:49;;;;;;;5.18;2.13;;;25.70;64.10;;;;;;9177088;19;20007;-71
2023/08/10 13:23:54;;;;;;;5.13;2.10;;;25.70;63.80;;;;;;9176187;19;20037;-71
2023/08/10 13:27:04;;;;;;;6.93;2.08;;;25.70;63.70;;;;;;9175499;19;20022;-71
2023/08/10 13:30:11;;;;;;;11.23;2.40;;;25.80;63.50;;;;;;9176760;19;20006;-71
2023/08/10 13:33:20;;;;;;;3.92;1.95;;;25.80;63.60;;;;;;9175652;19;20064;-73
2023/08/10 13:36:25;;;;;;;6.85;1.65;;;25.80;63.60;;;;;;9174863;19;20038;-71
2023/08/10 13:39:33;;;;;;;5.25;2.50;;;25.80;63.50;;;;;;9174792;19;20701;-71
2023/08/10 13:42:40;;;;;;;3.53;1.35;;;25.80;63.40;;;;;;9176331;19;20375;-71
2023/08/10 13:45:48;;;;;;;5.15;1.90;;;25.90;63.40;;;;;;9176430;19;20022;-71
2023/08/10 13:48:54;;;;;;;4.90;2.13;;;25.90;63.20;;;;;;9173423;19;20364;-71
2023/08/10 13:52:02;;;;;;;10.07;1.77;;;25.80;63.10;;;;;;9174093;19;20033;-70
2023/08/10 13:55:11;;;;;;;5.00;1.75;;;25.80;63.00;;;;;;9176038;19;20102;-71
2023/08/10 13:58:21;;;;;;;4.93;2.00;;;25.80;63.00;;;;;;9170456;19;20384;-71
2023/08/10 14:01:26;;;;;;;7.97;1.80;;;25.80;78.80;;;;;;9176363;19;20015;-71
2023/08/10 14:04:34;;;;;;;5.43;1.70;;;25.90;82.10;;;;;;9183819;19;20030;-71
2023/08/10 14:07:39;;;;;;;2.67;1.55;;;25.80;81.50;;;;;;9184975;19;20022;-71
2023/08/10 14:10:47;;;;;;;4.72;2.10;;;25.70;80.80;;;;;;9184473;19;20029;-71
2023/08/10 14:13:55;;;;;;;14.13;2.55;;;25.70;79.50;;;;;;9184683;19;20018;-71
2023/08/10 14:17:02;;;;;;;6.95;2.53;;;25.70;78.50;;;;;;9184245;19;20014;-72
2023/08/10 14:20:10;;;;;;;4.82;1.98;;;25.70;78.50;;;;;;9182905;19;20011;-71
2023/08/10 14:23:17;;;;;;;10.70;2.47;;;25.60;78.70;;;;;;9184722;19;20013;-70
2023/08/10 14:26:23;;;;;;;5.22;1.85;;;25.60;78.90;;;;;;9184677;19;20018;-70
2023/08/10 14:29:33;;;;;;;7.60;1.65;;;25.50;78.50;;;;;;9184313;19;20643;-70
2023/08/10 14:32:38;;;;;;;4.53;1.63;;;25.40;78.10;;;;;;9181779;19;20353;-71
2023/08/10 14:35:45;;;;;;;6.53;1.95;;;25.40;77.60;;;;;;9183896;19;20022;-70
2023/08/10 14:38:51;;;;;;;4.30;1.88;;;25.30;78.40;;;;;;9183758;19;20014;-71
2023/08/10 14:41:58;;;;;;;5.32;2.00;;;25.20;78.20;;;;;;9183664;19;20030;-70
2023/08/10 14:45:07;;;;;;;5.85;1.95;;;25.20;78.00;;;;;;9181625;19;20427;-71
2023/08/10 14:48:14;;;;;;;3.35;2.00;;;25.20;78.40;;;;;;9181547;19;20025;-70
2023/08/10 14:51:20;;;;;;;4.00;1.92;;;25.20;78.30;;;;;;9183046;19;20360;-70
2023/08/10 14:54:27;;;;;;;4.47;1.92;;;25.10;78.40;;;;;;9182983;19;20384;-71
2023/08/10 14:57:32;;;;;;;3.03;1.77;;;25.10;78.50;;;;;;9176539;19;20014;-71
2023/08/10 15:00:42;;;;;;;8.13;1.95;;;25.10;78.60;;;;;;9182865;19;20502;-73
2023/08/10 15:03:48;;;;;;;4.43;2.00;;;25.00;79.90;;;;;;9179958;19;20019;-73
2023/08/10 15:06:56;;;;;;;6.38;1.90;;;25.00;79.40;;;;;;9182331;19;20021;-71
2023/08/10 15:10:02;;;;;;;5.82;2.10;;;25.00;79.10;;;;;;9182086;19;20021;-72
2023/08/10 15:13:09;;;;;;;2.97;2.00;;;25.00;79.90;;;;;;9181367;19;20034;-72
2023/08/10 15:16:17;;;;;;;6.50;2.50;;;24.90;79.50;;;;;;9182055;19;20034;-73
2023/08/10 15:19:25;;;;;;;4.65;2.25;;;24.80;80.00;;;;;;9182223;19;20033;-71
2023/08/10 15:22:30;;;;;;;4.00;2.40;;;24.90;80.70;;;;;;9181165;19;20022;-72
2023/08/10 15:25:37;;;;;;;4.40;2.50;;;24.90;80.30;;;;;;9179784;19;20023;-73
2023/08/10 15:28:43;;;;;;;3.90;1.98;;;24.80;80.10;;;;;;9178170;19;20070;-70
2023/08/10 15:31:54;;;;;;;5.88;2.30;;;24.80;81.10;;;;;;9179941;19;20437;-71
2023/08/10 15:34:59;;;;;;;11.18;2.50;;;24.80;79.70;;;;;;9181066;19;20904;-72
2023/08/10 15:38:07;;;;;;;5.30;2.20;;;24.70;79.40;;;;;;9180899;19;20014;-72
2023/08/10 15:41:12;;;;;;;2.88;2.00;;;25.10;80.00;;;;;;9181361;19;20082;-71
2023/08/10 15:44:20;;;;;;;5.50;1.88;;;24.60;79.20;;;;;;9180485;19;20026;-72
2023/08/10 15:47:28;;;;;;;11.20;2.33;;;24.60;80.20;;;;;;9180297;19;20150;-71
2023/08/10 15:50:36;;;;;;;7.57;1.83;;;24.70;80.10;;;;;;9180706;19;20010;-71
2023/08/10 15:53:42;;;;;;;15.38;2.55;;;24.60;80.60;;;;;;9180526;19;20025;-71
2023/08/10 15:56:49;;;;;;;5.50;3.00;;;24.50;80.30;;;;;;9176798;19;20727;-72
2023/08/10 15:59:54;;;;;;;5.25;2.75;;;24.50;80.30;;;;;;9178875;19;20511;-71
2023/08/10 16:03:04;;;;;;;3.78;2.67;;;24.60;80.20;;;;;;9178811;19;20491;-72
2023/08/10 16:06:10;;;;;;;4.47;3.10;;;24.40;80.00;;;;;;9177725;19;20006;-72
2023/08/10 16:09:17;;;;;;;4.57;2.10;;;24.40;79.90;;;;;;9179762;19;20011;-72
2023/08/10 16:12:23;;;;;;;5.82;2.25;;;24.40;80.00;;;;;;9179435;19;20029;-71
2023/08/10 16:15:30;;;;;;;6.18;2.25;;;24.40;80.10;;;;;;9179142;19;20022;-71